Time;durP1;ratioP1;P1;durP2;ratioP2;P2;SDS_P1;SDS_P2;PMS_P1;PMS_P2;Temp;Humidity;BMP_temperature;BMP_pressure;BME280_temperature;BME280_humidity;BME280_pressure;Samples;Min_cycle;Max_cycle;Signal;HPM_P1;HPM_P2
2024/01/06 00:01:52;;;;;;;13.68;9.20;;;9.10;71.60;;;4.23;100.00;94278.63;4967895;28;20496;-54
2024/01/06 00:04:18;;;;;;;11.82;7.63;;;9.10;71.60;;;4.24;100.00;94277.59;4966137;28;20030;-57
2024/01/06 00:06:44;;;;;;;14.30;9.18;;;9.10;71.60;;;4.22;100.00;94280.47;4969241;28;20393;-53
2024/01/06 00:09:10;;;;;;;15.40;8.70;;;9.00;71.60;;;4.23;100.00;94274.16;4969197;28;20026;-52
2024/01/06 00:11:36;;;;;;;13.65;8.70;;;9.00;71.60;;;4.24;100.00;94274.94;4973078;28;20026;-50
2024/01/06 00:14:02;;;;;;;12.75;8.65;;;9.00;71.70;;;4.24;100.00;94267.03;4963794;28;20032;-57
2024/01/06 00:16:27;;;;;;;12.85;8.68;;;9.00;72.50;;;4.23;100.00;94270.72;4972313;28;20049;-52
2024/01/06 00:18:53;;;;;;;14.20;8.60;;;9.00;71.70;;;4.22;100.00;94269.91;4962397;28;20041;-58
2024/01/06 00:21:19;;;;;;;17.63;9.90;;;9.00;71.70;;;4.21;100.00;94278.88;4970855;28;20076;-56
2024/01/06 00:23:45;;;;;;;14.25;8.98;;;9.00;71.70;;;4.21;100.00;94268.34;4966281;28;20045;-52
2024/01/06 00:26:11;;;;;;;14.98;9.10;;;9.00;71.70;;;4.22;100.00;94269.13;4964000;28;20023;-55
2024/01/06 00:28:39;;;;;;;12.60;8.18;;;9.00;71.70;;;4.21;100.00;94281.53;4966836;28;20126;-57
2024/01/06 00:31:06;;;;;;;13.63;8.77;;;9.00;71.70;;;4.20;100.00;94284.41;4972460;28;20448;-58
2024/01/06 00:33:32;;;;;;;13.00;8.15;;;9.00;71.80;;;4.21;100.00;94291.28;4967782;28;20113;-57
2024/01/06 00:35:58;;;;;;;13.18;8.55;;;9.00;71.80;;;4.20;100.00;94293.13;4967423;28;20121;-55
2024/01/06 00:38:24;;;;;;;12.77;7.78;;;9.00;71.70;;;4.18;100.00;94297.84;4971774;28;20400;-56
2024/01/06 00:40:49;;;;;;;14.77;9.10;;;9.00;71.70;;;4.18;100.00;94290.72;4971753;28;20400;-56
2024/01/06 00:43:15;;;;;;;12.73;8.55;;;9.00;71.70;;;4.18;100.00;94303.13;4963373;28;20029;-52
2024/01/06 00:45:41;;;;;;;15.88;8.55;;;9.00;71.60;;;4.16;100.00;94297.31;4969306;28;20034;-56
2024/01/06 00:48:07;;;;;;;15.32;8.38;;;9.00;71.60;;;4.13;100.00;94293.31;4966144;28;20030;-55
2024/01/06 00:50:33;;;;;;;15.98;8.73;;;8.90;71.60;;;4.12;100.00;94306.78;4966913;28;20025;-54
2024/01/06 00:52:59;;;;;;;17.63;8.95;;;9.00;71.60;;;4.10;100.00;94306.22;4970526;28;20429;-57
2024/01/06 00:55:25;;;;;;;15.45;9.30;;;8.90;71.50;;;4.09;100.00;94307.28;4972403;28;20015;-54
2024/01/06 00:57:51;;;;;;;14.85;8.07;;;8.90;72.30;;;4.07;100.00;94314.63;4965838;28;20030;-55
2024/01/06 01:00:17;;;;;;;17.30;9.98;;;8.90;71.50;;;4.05;100.00;94306.22;4971396;28;20030;-54
2024/01/06 01:02:43;;;;;;;17.40;8.88;;;8.90;71.50;;;4.01;100.00;94313.84;4968546;28;20388;-55
2024/01/06 01:05:09;;;;;;;16.27;9.45;;;8.90;71.50;;;3.96;100.00;94313.00;4971998;28;20080;-56
2024/01/06 01:07:35;;;;;;;21.35;9.63;;;8.90;71.50;;;3.94;100.00;94315.88;4981151;28;20034;-57
2024/01/06 01:10:01;;;;;;;15.60;9.00;;;8.90;71.50;;;3.91;100.00;94313.75;4981311;28;20497;-58
2024/01/06 01:12:27;;;;;;;13.43;7.15;;;8.80;71.40;;;3.84;100.00;94323.72;4964067;28;20029;-53
2024/01/06 01:14:53;;;;;;;14.80;7.78;;;8.80;71.40;;;3.76;100.00;94319.72;4964712;28;20489;-57
2024/01/06 01:17:20;;;;;;;12.82;7.18;;;8.80;72.20;;;3.79;100.00;94321.84;4964615;28;20022;-58
2024/01/06 01:19:46;;;;;;;13.80;8.07;;;8.80;71.40;;;3.84;100.00;94329.78;4967686;28;20030;-58
2024/01/06 01:22:12;;;;;;;13.85;8.18;;;8.70;71.40;;;3.84;100.00;94332.41;4968183;28;20511;-57
2024/01/06 01:24:39;;;;;;;14.90;8.07;;;8.70;71.50;;;3.85;100.00;94328.72;4963686;28;20076;-56
2024/01/06 01:27:05;;;;;;;15.38;8.43;;;8.70;71.50;;;3.83;100.00;94338.72;4956610;28;20026;-54
2024/01/06 01:29:31;;;;;;;12.68;7.72;;;8.70;71.50;;;3.83;100.00;94338.72;4969178;28;20084;-57
2024/01/06 01:31:57;;;;;;;12.85;7.85;;;8.70;71.50;;;3.81;100.00;94353.19;4966599;28;20022;-52
2024/01/06 01:34:23;;;;;;;14.30;7.70;;;8.80;71.50;;;3.78;100.00;94349.22;4964335;28;20038;-58
2024/01/06 01:36:48;;;;;;;13.48;7.85;;;8.70;71.50;;;3.77;100.00;94350.28;4966526;28;20022;-57
2024/01/06 01:39:14;;;;;;;11.20;7.22;;;8.70;71.50;;;3.77;100.00;94365.28;4970586;28;20049;-58
2024/01/06 01:41:41;;;;;;;15.40;7.38;;;8.70;71.50;;;3.81;100.00;94377.69;4966997;28;20110;-55
2024/01/06 01:44:07;;;;;;;12.07;7.32;;;8.70;71.60;;;3.83;100.00;94378.25;4968972;28;20026;-58
2024/01/06 01:46:33;;;;;;;12.27;7.47;;;8.70;71.60;;;3.83;100.00;94362.44;4964713;28;20536;-57
2024/01/06 01:49:03;;;;;;;10.10;6.35;;;8.70;71.60;;;3.84;100.00;94361.38;4972616;28;20034;-55
2024/01/06 01:51:35;;;;;;;7.40;4.88;;;8.70;71.60;;;3.68;100.00;94364.94;4967893;28;20022;-55
2024/01/06 01:54:07;;;;;;;9.27;5.30;;;8.70;71.60;;;3.75;100.00;94372.63;4970985;28;20083;-57
2024/01/06 01:56:36;;;;;;;9.00;5.60;;;8.70;71.50;;;3.75;100.00;94370.78;4965018;28;20026;-57
2024/01/06 01:59:12;;;;;;;8.20;5.50;;;8.70;71.50;;;3.74;100.00;94369.22;4980695;28;20025;-55
2024/01/06 02:01:42;;;;;;;8.48;5.30;;;8.70;71.60;;;3.76;100.00;94372.41;4964139;28;20026;-55
2024/01/06 02:04:12;;;;;;;8.07;5.28;;;8.70;71.60;;;3.73;100.00;94375.53;4967615;28;20033;-55
2024/01/06 02:06:37;;;;;;;8.48;5.13;;;8.70;71.60;;;3.73;100.00;94372.91;4966755;28;20026;-55
2024/01/06 02:09:03;;;;;;;8.88;4.70;;;8.70;71.50;;;3.73;100.00;94375.53;4963578;28;20032;-54
2024/01/06 02:11:29;;;;;;;8.25;4.85;;;8.70;71.50;;;3.74;100.00;94376.31;4985662;28;20018;-56
2024/01/06 02:13:55;;;;;;;9.10;4.85;;;8.70;71.50;;;3.74;100.00;94378.97;4961887;28;20488;-55
2024/01/06 02:16:21;;;;;;;9.20;4.70;;;8.70;71.50;;;3.75;100.00;94375.28;4967120;28;20659;-53
2024/01/06 02:18:47;;;;;;;11.90;5.13;;;8.70;71.50;;;3.72;100.00;94379.19;4982358;28;20026;-57
2024/01/06 02:21:15;;;;;;;7.07;4.60;;;8.70;71.50;;;3.66;100.00;94372.28;4961812;28;20030;-53
2024/01/06 02:23:41;;;;;;;9.38;5.38;;;8.60;71.50;;;3.65;100.00;94365.44;4969748;28;20417;-55
2024/01/06 02:26:06;;;;;;;9.13;5.35;;;8.60;71.30;;;3.64;100.00;94371.78;4968801;28;20037;-55
2024/01/06 02:28:32;;;;;;;9.85;5.80;;;8.60;71.30;;;3.64;100.00;94377.03;4963857;28;20077;-56
2024/01/06 02:30:58;;;;;;;9.98;5.32;;;8.60;71.40;;;3.58;100.00;94375.41;4970428;28;20054;-52
2024/01/06 02:33:24;;;;;;;8.25;5.63;;;8.60;71.40;;;3.56;100.00;94372.22;4965315;28;20026;-58
2024/01/06 02:35:50;;;;;;;7.32;4.80;;;8.50;72.20;;;3.47;100.00;94385.03;4982429;23;20049;-53
2024/01/06 02:38:16;;;;;;;6.78;4.95;;;8.50;71.40;;;3.44;100.00;94383.69;4981864;28;20042;-57
2024/01/06 02:40:42;;;;;;;6.70;4.50;;;8.50;71.50;;;3.51;100.00;94385.31;4978549;28;20144;-53
2024/01/06 02:43:09;;;;;;;5.85;4.03;;;8.50;71.50;;;3.53;100.00;94386.66;4989443;28;20026;-52
2024/01/06 02:45:35;;;;;;;5.22;3.80;;;8.50;71.70;;;3.54;100.00;94390.09;4982427;28;20152;-56
2024/01/06 02:48:01;;;;;;;7.47;3.47;;;8.40;71.60;;;3.54;100.00;94390.91;4974292;28;20046;-52
2024/01/06 02:50:27;;;;;;;6.80;3.60;;;8.40;71.60;;;3.47;100.00;94401.63;4966224;28;20030;-53
2024/01/06 02:52:53;;;;;;;4.05;3.33;;;8.40;71.60;;;3.40;100.00;94401.03;4975152;28;20037;-58
2024/01/06 02:55:19;;;;;;;7.05;3.60;;;8.40;71.50;;;3.38;100.00;94397.84;4968648;28;20072;-57
2024/01/06 02:57:44;;;;;;;5.70;3.30;;;8.30;71.50;;;3.41;100.00;94404.44;4979730;28;20030;-56
2024/01/06 03:00:12;;;;;;;6.82;2.65;;;8.30;71.50;;;3.38;100.00;94400.47;4969820;28;20404;-58
2024/01/06 03:02:41;;;;;;;6.03;2.60;;;8.30;71.50;;;3.30;100.00;94397.50;4971827;28;20370;-58
2024/01/06 03:05:10;;;;;;;3.58;2.10;;;8.30;71.50;;;3.31;100.00;94402.50;4972012;28;20045;-58
2024/01/06 03:07:36;;;;;;;3.30;1.88;;;8.30;71.50;;;3.30;100.00;94400.94;4971695;28;20084;-57
2024/01/06 03:10:02;;;;;;;3.92;2.00;;;8.20;71.50;;;3.30;100.00;94397.50;4977802;28;20022;-57
2024/01/06 03:12:28;;;;;;;7.50;2.10;;;8.20;71.50;;;3.31;100.00;94397.25;4974204;28;20036;-53
2024/01/06 03:14:54;;;;;;;3.53;1.50;;;8.20;71.50;;;3.27;100.00;94400.63;4972973;28;20411;-52
2024/01/06 03:17:19;;;;;;;4.30;1.80;;;8.20;71.50;;;3.19;100.00;94400.00;4971106;28;20357;-58
2024/01/06 03:19:45;;;;;;;3.25;1.73;;;8.10;71.30;;;3.20;100.00;94396.34;4978036;28;20030;-55
2024/01/06 03:22:11;;;;;;;3.53;1.48;;;8.10;71.30;;;3.18;100.00;94403.69;4978575;28;20014;-57
2024/01/06 03:24:37;;;;;;;2.88;1.50;;;8.10;71.30;;;3.20;100.00;94398.19;4970253;28;20045;-52
2024/01/06 03:27:03;;;;;;;3.05;1.73;;;8.10;71.30;;;3.20;100.00;94396.34;4979720;28;20018;-57
2024/01/06 03:29:29;;;;;;;3.38;1.55;;;8.10;71.40;;;3.18;100.00;94403.69;4972020;28;20084;-53
2024/01/06 03:31:55;;;;;;;3.78;1.70;;;8.10;71.40;;;3.19;100.00;94407.13;4970787;28;20549;-58
2024/01/06 03:34:21;;;;;;;3.40;1.55;;;8.10;71.30;;;3.18;100.00;94401.06;4976041;28;20030;-53
2024/01/06 03:36:46;;;;;;;2.85;1.73;;;8.10;71.30;;;3.16;100.00;94403.13;4977789;28;20046;-58
2024/01/06 03:39:13;;;;;;;2.45;1.48;;;8.00;71.20;;;3.18;100.00;94408.97;4975515;28;20044;-56
2024/01/06 03:41:39;;;;;;;3.78;1.77;;;8.00;71.20;;;3.17;100.00;94410.00;4977605;28;20022;-56
2024/01/06 03:44:05;;;;;;;3.67;1.80;;;8.00;71.20;;;3.13;100.00;94418.63;4976107;28;20030;-56
2024/01/06 03:46:32;;;;;;;3.10;1.65;;;8.10;71.30;;;3.11;100.00;94418.09;4976262;28;20023;-55
2024/01/06 03:48:57;;;;;;;2.55;1.65;;;8.10;71.30;;;3.11;100.00;94420.72;4980018;28;20049;-54
2024/01/06 03:51:23;;;;;;;4.97;1.67;;;8.10;71.30;;;3.06;100.00;94423.28;4978234;28;20073;-54
2024/01/06 03:53:49;;;;;;;4.32;1.60;;;8.10;71.30;;;3.07;100.00;94422.22;4979389;28;20034;-58
2024/01/06 03:56:15;;;;;;;5.25;1.60;;;8.00;71.20;;;3.08;100.00;94419.38;4977444;28;20101;-53
2024/01/06 03:58:41;;;;;;;4.35;1.55;;;8.00;71.20;;;3.08;100.00;94415.94;4980469;28;20113;-52
2024/01/06 04:01:06;;;;;;;3.50;1.60;;;8.00;71.20;;;3.08;100.00;94422.00;4969845;28;20018;-57
2024/01/06 04:03:32;;;;;;;4.10;1.52;;;8.00;71.20;;;3.07;100.00;94428.31;4979742;28;20128;-56
2024/01/06 04:05:58;;;;;;;3.50;1.58;;;8.00;71.20;;;2.99;100.00;94429.53;4978778;28;20451;-57
2024/01/06 04:08:24;;;;;;;5.20;1.60;;;8.00;71.20;;;3.00;100.00;94427.69;4992042;28;20073;-56
2024/01/06 04:10:50;;;;;;;4.43;1.95;;;8.00;71.10;;;3.00;100.00;94432.94;4973500;28;20026;-55
2024/01/06 04:13:16;;;;;;;2.40;1.60;;;8.00;71.10;;;3.01;100.00;94437.97;4986984;28;20125;-54
2024/01/06 04:15:42;;;;;;;4.97;1.35;;;8.00;71.10;;;2.96;100.00;94437.13;4976155;28;20045;-52
2024/01/06 04:18:09;;;;;;;4.28;1.40;;;8.00;71.10;;;2.95;100.00;94444.22;4976053;28;20039;-52
2024/01/06 04:20:35;;;;;;;4.20;1.58;;;7.90;71.00;;;2.97;100.00;94444.75;4972790;28;20416;-52
2024/01/06 04:23:01;;;;;;;4.22;1.23;;;7.90;71.10;;;2.98;100.00;94449.00;4978162;28;20088;-51
2024/01/06 04:25:27;;;;;;;3.17;1.50;;;7.90;71.20;;;2.98;100.00;94448.19;4975682;28;20030;-56
2024/01/06 04:27:52;;;;;;;5.03;1.58;;;7.90;71.20;;;2.97;100.00;94438.69;4976486;28;20076;-55
2024/01/06 04:30:20;;;;;;;6.22;1.55;;;7.90;71.10;;;2.96;100.00;94448.44;4980092;28;20064;-55
2024/01/06 04:32:48;;;;;;;11.18;2.10;;;7.90;71.10;;;2.95;100.00;94452.09;4975762;28;20025;-52
2024/01/06 04:35:14;;;;;;;3.33;1.52;;;7.90;71.00;;;2.96;100.00;94455.53;4977264;28;20042;-51
2024/01/06 04:37:40;;;;;;;5.60;1.42;;;7.90;71.10;;;2.94;100.00;94444.44;4979571;28;20075;-51
2024/01/06 04:40:07;;;;;;;7.70;1.75;;;7.90;71.00;;;2.93;100.00;94448.91;4973461;28;20034;-52
2024/01/06 04:42:34;;;;;;;4.10;1.58;;;7.90;71.00;;;2.92;100.00;94457.84;4971400;28;20431;-52
2024/01/06 04:45:00;;;;;;;2.42;1.30;;;7.90;71.00;;;2.90;100.00;94453.88;4972384;28;20030;-52
2024/01/06 04:47:27;;;;;;;4.18;1.50;;;7.90;71.00;;;2.89;100.00;94460.19;4974497;28;20029;-51
2024/01/06 04:49:53;;;;;;;4.80;1.60;;;7.90;71.00;;;2.87;100.00;94454.38;4974640;28;20117;-55
2024/01/06 04:52:19;;;;;;;6.80;1.70;;;7.90;71.00;;;2.88;100.00;94458.56;4977628;28;20104;-52
2024/01/06 04:54:45;;;;;;;4.25;1.58;;;7.90;70.90;;;2.88;100.00;94461.22;4973127;28;20465;-52
2024/01/06 04:57:10;;;;;;;3.45;1.50;;;7.90;70.90;;;2.85;100.00;94462.50;4977747;28;20022;-53
2024/01/06 04:59:36;;;;;;;6.00;1.40;;;7.90;70.90;;;2.86;100.00;94468.56;4973960;28;20502;-55
2024/01/06 05:02:03;;;;;;;6.00;1.65;;;7.90;70.90;;;2.84;100.00;94468.00;4973482;28;20504;-55
2024/01/06 05:04:30;;;;;;;3.60;1.73;;;7.80;70.80;;;2.81;100.00;94463.22;4969684;28;20026;-52
2024/01/06 05:06:56;;;;;;;3.40;1.30;;;7.80;70.80;;;2.78;100.00;94461.88;4979213;28;20393;-55
2024/01/06 05:09:22;;;;;;;3.95;1.20;;;7.80;70.80;;;2.77;100.00;94468.19;4974088;28;20037;-54
2024/01/06 05:11:48;;;;;;;4.70;1.83;;;7.80;70.80;;;2.76;100.00;94463.97;4971716;28;20029;-56
2024/01/06 05:14:13;;;;;;;5.88;1.70;;;7.80;70.80;;;2.74;100.00;94479.19;4976024;28;20548;-51
2024/01/06 05:16:39;;;;;;;5.43;1.40;;;7.80;70.80;;;2.72;100.00;94475.97;4978635;28;20156;-53
2024/01/06 05:19:05;;;;;;;6.30;1.55;;;7.80;70.90;;;2.72;100.00;94473.34;4976348;28;20048;-57
2024/01/06 05:21:31;;;;;;;5.43;1.75;;;7.80;70.90;;;2.71;100.00;94467.31;4973983;28;20480;-57
2024/01/06 05:23:57;;;;;;;4.25;1.50;;;7.70;71.60;;;2.71;100.00;94469.94;4972360;28;20058;-56
2024/01/06 05:26:23;;;;;;;2.30;1.58;;;7.70;70.90;;;2.68;100.00;94475.69;4974369;28;20044;-57
2024/01/06 05:28:49;;;;;;;4.18;1.50;;;7.70;70.90;;;2.68;100.00;94474.88;4975368;28;20057;-54
2024/01/06 05:31:15;;;;;;;3.55;1.48;;;7.70;70.90;;;2.61;100.00;94476.91;4968422;28;20029;-52
2024/01/06 05:33:41;;;;;;;5.28;1.80;;;7.70;70.90;;;2.59;100.00;94476.34;4955583;28;20538;-57
2024/01/06 05:36:07;;;;;;;6.95;1.70;;;7.70;70.80;;;2.60;100.00;94472.66;4975159;28;20038;-56
2024/01/06 05:38:33;;;;;;;3.75;1.40;;;7.70;70.90;;;2.55;100.00;94483.91;4976558;28;20045;-56
2024/01/06 05:40:59;;;;;;;3.17;1.40;;;7.60;70.80;;;2.57;100.00;94483.66;4965228;28;20026;-57
2024/01/06 05:43:25;;;;;;;3.60;1.45;;;7.60;70.80;;;2.55;100.00;94479.44;4968836;28;20022;-55
2024/01/06 05:45:51;;;;;;;1.58;1.25;;;7.60;70.80;;;2.54;100.00;94477.84;4973256;28;20026;-55
2024/01/06 05:48:17;;;;;;;3.40;1.48;;;7.60;70.90;;;2.54;100.00;94482.31;4973470;28;20714;-52
2024/01/06 05:50:43;;;;;;;6.07;1.40;;;7.60;70.90;;;2.51;100.00;94478.34;4974455;28;20033;-56
2024/01/06 05:53:10;;;;;;;2.55;1.55;;;7.60;70.90;;;2.50;100.00;94476.72;4976080;28;20465;-55
2024/01/06 05:55:36;;;;;;;4.65;1.50;;;7.60;70.90;;;2.48;100.00;94480.66;4972178;28;20057;-56
2024/01/06 05:58:03;;;;;;;4.38;1.40;;;7.60;70.90;;;2.47;100.00;94486.94;4972646;28;20078;-56
2024/01/06 06:00:31;;;;;;;1.95;1.42;;;7.60;70.90;;;2.43;100.00;94497.13;4973022;28;20024;-52
2024/01/06 06:02:58;;;;;;;1.85;1.08;;;7.50;70.80;;;2.41;100.00;94501.81;4970440;28;20037;-56
2024/01/06 06:05:24;;;;;;;4.65;1.25;;;7.50;70.80;;;2.41;100.00;94501.03;4972876;28;20440;-57
2024/01/06 06:07:50;;;;;;;4.90;1.27;;;7.50;70.80;;;2.39;100.00;94497.88;4966654;28;20019;-52
2024/01/06 06:10:18;;;;;;;1.42;0.93;;;7.50;70.80;;;2.39;100.00;94503.13;4973838;28;20116;-53
2024/01/06 06:12:44;;;;;;;3.13;1.40;;;7.50;70.80;;;2.37;100.00;94507.81;4972164;28;20030;-53
2024/01/06 06:15:10;;;;;;;3.20;1.10;;;7.50;70.90;;;2.37;100.00;94510.44;4975426;28;20037;-52
2024/01/06 06:17:37;;;;;;;4.65;1.25;;;7.40;70.80;;;2.33;100.00;94515.38;4971042;28;20408;-52
2024/01/06 06:20:06;;;;;;;3.80;1.40;;;7.40;70.80;;;2.33;100.00;94514.59;4975233;28;20057;-57
2024/01/06 06:22:32;;;;;;;2.83;1.25;;;7.40;70.80;;;2.33;100.00;94517.22;4976370;28;20053;-57
2024/01/06 06:25:03;;;;;;;3.25;1.45;;;7.40;70.90;;;2.24;100.00;94514.97;4977122;28;20049;-53
2024/01/06 06:27:29;;;;;;;6.60;1.50;;;7.40;70.90;;;2.27;100.00;94514.50;4975447;28;20026;-55
2024/01/06 06:29:58;;;;;;;7.13;1.50;;;7.40;70.90;;;2.25;100.00;94518.38;4968571;28;20469;-55
2024/01/06 06:32:25;;;;;;;4.78;1.50;;;7.30;70.90;;;2.24;100.00;94508.94;4966561;28;20030;-58
2024/01/06 06:34:51;;;;;;;2.33;1.65;;;7.30;70.90;;;2.26;100.00;94512.91;4974128;28;20511;-52
2024/01/06 06:37:17;;;;;;;4.20;1.60;;;7.30;70.90;;;2.25;100.00;94521.81;4973039;28;20061;-56
2024/01/06 06:39:44;;;;;;;3.72;1.55;;;7.30;70.90;;;2.27;100.00;94514.50;4973957;28;20029;-57
2024/01/06 06:42:10;;;;;;;3.80;1.48;;;7.40;71.10;;;2.28;100.00;94512.66;4972736;28;20033;-55
2024/01/06 06:44:36;;;;;;;3.80;1.75;;;7.30;71.00;;;2.26;100.00;94515.53;4974406;28;20073;-56
2024/01/06 06:47:03;;;;;;;3.65;1.88;;;7.30;71.00;;;2.27;100.00;94511.06;4974598;28;20946;-53
2024/01/06 06:49:29;;;;;;;3.35;1.85;;;7.40;71.10;;;2.29;100.00;94514.28;4977919;28;20030;-53
2024/01/06 06:51:55;;;;;;;5.43;2.22;;;7.30;71.00;;;2.31;100.00;94522.69;4977779;28;20208;-54
2024/01/06 06:54:21;;;;;;;3.15;1.80;;;7.40;71.10;;;2.28;100.00;94526.59;4979008;28;20481;-53
2024/01/06 06:56:47;;;;;;;5.60;2.20;;;7.30;71.00;;;2.26;100.00;94533.16;4979190;28;20041;-54
2024/01/06 06:59:14;;;;;;;4.40;2.40;;;7.30;71.00;;;2.25;100.00;94539.41;4972626;28;20032;-53
2024/01/06 07:01:39;;;;;;;4.32;2.08;;;7.30;71.00;;;2.28;100.00;94539.72;4979424;28;20499;-52
2024/01/06 07:04:05;;;;;;;3.70;2.58;;;7.30;71.10;;;2.30;100.00;94539.50;4976896;28;20033;-52
2024/01/06 07:06:31;;;;;;;4.22;2.80;;;7.30;71.20;;;2.30;100.00;94540.31;4968227;28;20031;-53
2024/01/06 07:08:57;;;;;;;9.10;2.63;;;7.30;71.20;;;2.32;100.00;94534.81;4973931;28;20025;-53
2024/01/06 07:11:23;;;;;;;3.17;2.10;;;7.30;71.20;;;2.31;100.00;94533.22;4976457;28;20421;-58
2024/01/06 07:13:50;;;;;;;5.90;3.28;;;7.30;71.30;;;2.29;100.00;94537.94;4980524;28;20030;-53
2024/01/06 07:16:16;;;;;;;7.53;3.10;;;7.30;71.30;;;2.30;100.00;94544.75;4974881;28;20053;-56
2024/01/06 07:18:42;;;;;;;4.55;2.97;;;7.40;71.40;;;2.28;100.00;94545.00;4974067;28;20030;-56
2024/01/06 07:21:08;;;;;;;6.82;3.00;;;7.30;71.30;;;2.29;100.00;94536.09;4974014;28;20373;-58
2024/01/06 07:23:35;;;;;;;4.90;2.95;;;7.40;71.30;;;2.29;100.00;94538.72;4976425;28;20610;-52
2024/01/06 07:26:01;;;;;;;4.70;3.25;;;7.30;71.30;;;2.30;100.00;94544.75;4973776;28;20024;-53
2024/01/06 07:28:27;;;;;;;6.93;2.97;;;7.40;71.30;;;2.29;100.00;94549.22;4975057;28;20030;-54
2024/01/06 07:30:53;;;;;;;8.38;3.35;;;7.40;71.30;;;2.30;100.00;94542.94;4973207;28;20108;-53
2024/01/06 07:33:20;;;;;;;7.90;3.05;;;7.40;71.30;;;2.31;100.00;94555.03;4973754;28;20030;-53
2024/01/06 07:35:46;;;;;;;4.85;3.38;;;7.40;71.30;;;2.33;100.00;94552.19;4975529;28;20493;-52
2024/01/06 07:38:13;;;;;;;6.85;3.45;;;7.40;71.30;;;2.35;100.00;94567.69;4976307;28;20465;-54
2024/01/06 07:40:40;;;;;;;4.93;3.50;;;7.40;71.30;;;2.32;100.00;94571.63;4972974;28;20033;-56
2024/01/06 07:43:06;;;;;;;6.57;3.58;;;7.50;71.20;;;2.34;100.00;94577.41;4970737;28;20030;-52
2024/01/06 07:45:32;;;;;;;5.80;3.97;;;7.50;71.30;;;2.35;100.00;94580.84;4974065;28;20018;-52
2024/01/06 07:47:59;;;;;;;7.57;4.25;;;7.50;71.20;;;2.35;100.00;94583.47;4972054;28;20121;-54
2024/01/06 07:50:26;;;;;;;6.70;3.78;;;7.50;71.20;;;2.35;100.00;94586.09;4975246;28;20443;-52
2024/01/06 07:52:52;;;;;;;49.78;5.10;;;7.50;71.30;;;2.35;100.00;94579.03;4971881;28;20117;-53
2024/01/06 07:55:18;;;;;;;5.43;3.80;;;7.50;71.20;;;2.35;100.00;94584.28;4973460;28;20073;-52
2024/01/06 07:57:44;;;;;;;9.38;4.22;;;7.50;71.20;;;2.37;100.00;94581.41;4972840;28;20041;-56
2024/01/06 08:00:14;;;;;;;8.68;4.50;;;7.50;71.10;;;2.39;100.00;94581.97;4972631;28;20084;-55
2024/01/06 08:02:41;;;;;;;10.45;4.47;;;7.50;71.10;;;2.43;100.00;94586.50;4973425;28;20026;-53
2024/01/06 08:05:08;;;;;;;8.40;5.03;;;7.60;71.20;;;2.46;100.00;94591.28;4972121;28;20030;-53
2024/01/06 08:07:34;;;;;;;7.65;4.85;;;7.60;71.20;;;2.48;100.00;94597.13;4972595;28;20107;-57
2024/01/06 08:10:00;;;;;;;26.67;6.50;;;7.50;71.90;;;2.48;100.00;94591.06;4973355;28;20113;-57
2024/01/06 08:12:26;;;;;;;8.43;5.35;;;7.60;71.20;;;2.48;100.00;94583.97;4975718;28;20113;-54
2024/01/06 08:14:52;;;;;;;10.57;5.72;;;7.60;71.20;;;2.50;100.00;94583.72;4973016;28;20034;-58
2024/01/06 08:17:19;;;;;;;8.95;5.93;;;7.60;71.30;;;2.52;100.00;94582.44;4973644;28;20443;-57
2024/01/06 08:19:47;;;;;;;9.38;5.93;;;7.60;71.40;;;2.52;100.00;94585.09;4972845;28;20041;-56
2024/01/06 08:22:13;;;;;;;8.80;5.43;;;7.60;71.40;;;2.52;100.00;94590.34;4973054;28;20018;-59
2024/01/06 08:24:39;;;;;;;6.18;4.85;;;7.60;71.40;;;2.50;100.00;94581.88;4975781;28;20030;-56
2024/01/06 08:27:05;;;;;;;24.58;6.18;;;7.70;71.40;;;2.52;100.00;94589.53;4972769;28;20032;-55
2024/01/06 08:29:31;;;;;;;8.32;5.55;;;7.70;71.30;;;2.52;100.00;94595.59;4971360;28;20455;-58
2024/01/06 08:31:57;;;;;;;7.18;5.18;;;7.70;71.30;;;2.57;100.00;94599.34;4972858;28;20025;-58
2024/01/06 08:34:23;;;;;;;8.75;5.43;;;7.70;71.30;;;2.60;100.00;94599.69;4972533;28;20077;-54
2024/01/06 08:36:50;;;;;;;17.33;5.47;;;7.70;71.20;;;2.62;100.00;94597.59;4969918;28;20034;-52
2024/01/06 08:39:16;;;;;;;6.75;4.70;;;7.80;71.30;;;2.62;100.00;94602.06;4970383;28;20030;-53
2024/01/06 08:41:42;;;;;;;7.82;5.38;;;7.80;71.20;;;2.64;100.00;94607.88;4972186;28;20026;-54
2024/01/06 08:44:08;;;;;;;6.97;4.38;;;7.80;71.20;;;2.65;100.00;94606.84;4972898;28;20080;-56
2024/01/06 08:46:34;;;;;;;8.07;4.70;;;7.80;71.20;;;2.63;100.00;94619.41;4973025;28;20018;-57
2024/01/06 08:49:00;;;;;;;6.65;4.65;;;7.80;71.10;;;2.64;100.00;94618.41;4971940;28;20038;-58
2024/01/06 08:51:26;;;;;;;5.88;4.50;;;7.90;71.10;;;2.63;100.00;94617.59;4973196;28;20022;-55
2024/01/06 08:53:53;;;;;;;6.43;4.18;;;7.90;71.00;;;2.62;100.00;94621.25;4971643;28;20117;-56
2024/01/06 08:56:19;;;;;;;6.70;4.47;;;7.80;70.90;;;2.63;100.00;94622.06;4972590;28;20101;-55
2024/01/06 08:58:45;;;;;;;7.80;4.50;;;7.80;70.90;;;2.65;100.00;94631.31;4994914;28;20080;-53
2024/01/06 09:01:11;;;;;;;8.05;4.38;;;7.90;71.00;;;2.69;100.00;94635.03;4973247;28;20022;-52
2024/01/06 09:03:37;;;;;;;5.40;4.10;;;7.90;71.00;;;2.71;100.00;94630.34;4972195;28;20084;-55
2024/01/06 09:06:04;;;;;;;6.53;3.88;;;7.90;71.00;;;2.73;100.00;94630.91;4971844;28;20408;-58
2024/01/06 09:08:29;;;;;;;40.95;6.03;;;7.90;71.00;;;2.74;100.00;94631.72;4971715;28;20037;-54
2024/01/06 09:10:57;;;;;;;28.98;4.88;;;7.90;71.00;;;2.76;100.00;94634.91;4973925;28;20065;-52
2024/01/06 09:13:24;;;;;;;7.05;3.53;;;8.00;71.10;;;2.77;100.00;94639.91;4972116;28;20033;-52
2024/01/06 09:15:52;;;;;;;4.65;3.30;;;8.00;71.00;;;2.81;100.00;94642.06;4972573;28;20030;-53
2024/01/06 09:18:18;;;;;;;4.53;3.30;;;8.00;71.70;;;2.82;100.00;94630.50;4971923;28;20038;-53
2024/01/06 09:20:44;;;;;;;7.10;3.65;;;8.10;71.00;;;2.82;100.00;94636.59;4972373;28;20109;-54
2024/01/06 09:23:10;;;;;;;6.82;3.30;;;8.10;70.90;;;2.84;100.00;94637.13;4971521;28;20035;-52
2024/01/06 09:25:36;;;;;;;6.00;4.00;;;8.20;70.90;;;2.89;100.00;94639.84;4972867;28;20022;-53
2024/01/06 09:28:02;;;;;;;3.65;2.40;;;8.20;70.80;;;2.92;100.00;94641.22;4972379;28;20040;-54
2024/01/06 09:30:28;;;;;;;4.07;2.85;;;8.20;70.70;;;2.93;100.00;94637.53;4971279;28;20018;-57
2024/01/06 09:32:54;;;;;;;6.60;2.20;;;8.30;70.70;;;2.96;100.00;94637.84;4972370;28;20055;-53
2024/01/06 09:35:20;;;;;;;2.97;2.17;;;8.30;70.60;;;3.01;100.00;94648.47;4971191;28;20108;-52
2024/01/06 09:37:46;;;;;;;3.92;2.05;;;8.40;70.60;;;3.04;100.00;94646.38;4972062;28;20109;-58
2024/01/06 09:40:14;;;;;;;3.38;2.10;;;8.50;70.60;;;3.06;100.00;94649.56;4972002;28;20160;-54
2024/01/06 09:42:40;;;;;;;3.05;1.75;;;8.50;70.50;;;3.12;100.00;94648.63;4974070;28;20481;-55
2024/01/06 09:45:07;;;;;;;3.35;2.22;;;8.50;70.40;;;3.18;100.00;94647.66;4972734;28;20026;-52
2024/01/06 09:47:35;;;;;;;4.18;1.85;;;8.60;70.40;;;3.18;100.00;94653.72;4971320;28;20868;-54
2024/01/06 09:50:06;;;;;;;6.95;2.40;;;8.70;70.30;;;3.25;100.00;94649.06;4971765;28;20042;-54
2024/01/06 09:52:36;;;;;;;2.47;2.28;;;8.70;70.30;;;3.24;100.00;94646.69;4970659;28;20034;-54
2024/01/06 09:55:05;;;;;;;3.85;2.00;;;8.70;70.30;;;3.22;100.00;94652.19;4986424;28;20057;-53
2024/01/06 09:57:32;;;;;;;4.47;2.40;;;8.70;70.10;;;3.24;100.00;94650.13;4970226;28;20022;-53
2024/01/06 09:59:59;;;;;;;5.47;2.30;;;8.70;70.70;;;3.26;100.00;94644.63;4970503;28;20065;-52
2024/01/06 10:02:25;;;;;;;3.63;2.20;;;8.80;69.90;;;3.26;100.00;94647.25;4970793;28;20404;-54
2024/01/06 10:04:51;;;;;;;2.53;2.08;;;8.70;69.80;;;3.22;100.00;94646.91;4970700;28;20026;-54
2024/01/06 10:07:17;;;;;;;4.70;2.30;;;8.70;69.80;;;3.22;100.00;94651.38;4971624;28;20037;-52
2024/01/06 10:09:43;;;;;;;3.10;2.22;;;8.70;69.80;;;3.28;100.00;94647.00;4971676;28;20037;-51
2024/01/06 10:12:09;;;;;;;3.55;2.25;;;8.70;69.80;;;3.29;100.00;94645.94;4970569;28;20064;-57
2024/01/06 10:14:37;;;;;;;2.33;2.13;;;8.70;69.70;;;3.31;100.00;94646.53;4974053;28;20030;-52
2024/01/06 10:17:07;;;;;;;3.15;2.25;;;8.70;69.70;;;3.24;100.00;94639.59;4969305;28;20030;-52
2024/01/06 10:19:36;;;;;;;3.55;2.30;;;8.70;69.60;;;3.20;100.00;94640.31;4971537;28;20045;-53
2024/01/06 10:22:03;;;;;;;3.25;2.35;;;8.70;69.70;;;3.24;100.00;94641.44;4975934;28;20021;-53